sensor_id;sensor_type;location;lat;lon;timestamp;P1;durP1;ratioP1;P2;durP2;ratioP2
41139;SDS011;26881;48.784;9.192;2024-01-07T00:01:35;28.33;;;21.43;;
41139;SDS011;26881;48.784;9.192;2024-01-07T00:06:58;26.33;;;21.07;;
41139;SDS011;26881;48.784;9.192;2024-01-07T00:12:20;25.87;;;20.70;;
41139;SDS011;26881;48.784;9.192;2024-01-07T00:17:42;25.13;;;20.17;;
41139;SDS011;26881;48.784;9.192;2024-01-07T00:23:04;26.47;;;20.63;;
41139;SDS011;26881;48.784;9.192;2024-01-07T00:28:26;23.77;;;19.53;;
41139;SDS011;26881;48.784;9.192;2024-01-07T00:33:48;24.83;;;19.67;;
41139;SDS011;26881;48.784;9.192;2024-01-07T00:39:11;25.90;;;19.93;;
41139;SDS011;26881;48.784;9.192;2024-01-07T00:44:33;23.23;;;19.60;;
41139;SDS011;26881;48.784;9.192;2024-01-07T00:49:55;23.40;;;18.93;;
41139;SDS011;26881;48.784;9.192;2024-01-07T00:55:16;25.33;;;20.27;;
41139;SDS011;26881;48.784;9.192;2024-01-07T01:00:38;22.93;;;17.27;;
41139;SDS011;26881;48.784;9.192;2024-01-07T01:06:00;22.43;;;17.67;;
41139;SDS011;26881;48.784;9.192;2024-01-07T01:11:24;23.27;;;18.23;;
41139;SDS011;26881;48.784;9.192;2024-01-07T01:16:46;22.27;;;18.10;;
41139;SDS011;26881;48.784;9.192;2024-01-07T01:22:08;24.63;;;18.53;;
41139;SDS011;26881;48.784;9.192;2024-01-07T01:27:30;24.37;;;18.00;;
41139;SDS011;26881;48.784;9.192;2024-01-07T01:32:52;23.27;;;19.00;;
41139;SDS011;26881;48.784;9.192;2024-01-07T01:38:14;22.77;;;18.00;;
41139;SDS011;26881;48.784;9.192;2024-01-07T01:43:36;23.53;;;18.83;;
41139;SDS011;26881;48.784;9.192;2024-01-07T01:48:58;26.50;;;19.67;;
41139;SDS011;26881;48.784;9.192;2024-01-07T01:54:21;26.33;;;19.37;;
41139;SDS011;26881;48.784;9.192;2024-01-07T01:59:43;27.07;;;21.40;;
41139;SDS011;26881;48.784;9.192;2024-01-07T02:05:05;29.33;;;22.57;;
41139;SDS011;26881;48.784;9.192;2024-01-07T02:10:27;30.33;;;21.83;;
41139;SDS011;26881;48.784;9.192;2024-01-07T02:15:55;27.77;;;21.53;;
41139;SDS011;26881;48.784;9.192;2024-01-07T02:21:17;31.70;;;23.20;;
41139;SDS011;26881;48.784;9.192;2024-01-07T02:26:39;33.03;;;22.63;;
41139;SDS011;26881;48.784;9.192;2024-01-07T02:32:01;32.63;;;22.57;;
41139;SDS011;26881;48.784;9.192;2024-01-07T02:37:23;32.77;;;22.27;;
41139;SDS011;26881;48.784;9.192;2024-01-07T02:42:45;36.17;;;24.13;;
41139;SDS011;26881;48.784;9.192;2024-01-07T02:48:07;30.93;;;23.27;;
41139;SDS011;26881;48.784;9.192;2024-01-07T02:53:30;34.37;;;22.33;;
41139;SDS011;26881;48.784;9.192;2024-01-07T02:58:52;32.37;;;21.93;;
41139;SDS011;26881;48.784;9.192;2024-01-07T03:04:15;31.40;;;22.43;;
41139;SDS011;26881;48.784;9.192;2024-01-07T03:09:37;31.33;;;22.73;;
41139;SDS011;26881;48.784;9.192;2024-01-07T03:14:59;33.20;;;22.27;;
41139;SDS011;26881;48.784;9.192;2024-01-07T03:20:21;28.00;;;21.07;;
41139;SDS011;26881;48.784;9.192;2024-01-07T03:25:43;30.07;;;21.80;;
41139;SDS011;26881;48.784;9.192;2024-01-07T03:31:09;29.63;;;20.23;;
41139;SDS011;26881;48.784;9.192;2024-01-07T03:36:34;30.30;;;20.83;;
41139;SDS011;26881;48.784;9.192;2024-01-07T03:41:56;30.00;;;18.87;;
41139;SDS011;26881;48.784;9.192;2024-01-07T03:47:18;24.50;;;18.97;;
41139;SDS011;26881;48.784;9.192;2024-01-07T03:52:40;24.83;;;19.30;;
41139;SDS011;26881;48.784;9.192;2024-01-07T03:58:02;24.87;;;19.03;;
41139;SDS011;26881;48.784;9.192;2024-01-07T04:03:24;24.07;;;18.77;;
41139;SDS011;26881;48.784;9.192;2024-01-07T04:08:47;26.40;;;19.60;;
41139;SDS011;26881;48.784;9.192;2024-01-07T04:14:09;27.90;;;18.93;;
41139;SDS011;26881;48.784;9.192;2024-01-07T04:19:31;27.33;;;19.97;;
41139;SDS011;26881;48.784;9.192;2024-01-07T04:24:53;24.80;;;19.23;;
41139;SDS011;26881;48.784;9.192;2024-01-07T04:30:15;24.30;;;17.97;;
41139;SDS011;26881;48.784;9.192;2024-01-07T04:35:37;24.77;;;17.67;;
41139;SDS011;26881;48.784;9.192;2024-01-07T04:40:59;23.73;;;18.03;;
41139;SDS011;26881;48.784;9.192;2024-01-07T04:46:21;23.50;;;18.67;;
41139;SDS011;26881;48.784;9.192;2024-01-07T04:51:43;26.10;;;18.47;;
41139;SDS011;26881;48.784;9.192;2024-01-07T04:57:05;24.77;;;19.57;;
41139;SDS011;26881;48.784;9.192;2024-01-07T05:02:27;22.27;;;17.60;;
41139;SDS011;26881;48.784;9.192;2024-01-07T05:07:49;25.90;;;18.73;;
41139;SDS011;26881;48.784;9.192;2024-01-07T05:13:11;24.40;;;18.03;;
41139;SDS011;26881;48.784;9.192;2024-01-07T05:18:33;26.13;;;17.40;;
41139;SDS011;26881;48.784;9.192;2024-01-07T05:23:55;24.33;;;17.33;;
41139;SDS011;26881;48.784;9.192;2024-01-07T05:29:17;22.87;;;16.10;;
41139;SDS011;26881;48.784;9.192;2024-01-07T05:34:39;21.10;;;15.67;;
41139;SDS011;26881;48.784;9.192;2024-01-07T05:40:01;22.33;;;15.03;;
41139;SDS011;26881;48.784;9.192;2024-01-07T05:45:23;21.03;;;14.47;;
41139;SDS011;26881;48.784;9.192;2024-01-07T05:50:45;17.40;;;13.77;;
41139;SDS011;26881;48.784;9.192;2024-01-07T05:56:07;17.43;;;13.37;;
41139;SDS011;26881;48.784;9.192;2024-01-07T06:01:29;20.83;;;14.20;;
41139;SDS011;26881;48.784;9.192;2024-01-07T06:06:51;22.20;;;15.33;;
41139;SDS011;26881;48.784;9.192;2024-01-07T06:12:15;21.93;;;15.33;;
41139;SDS011;26881;48.784;9.192;2024-01-07T06:17:37;19.20;;;14.53;;
41139;SDS011;26881;48.784;9.192;2024-01-07T06:22:59;18.37;;;13.57;;
41139;SDS011;26881;48.784;9.192;2024-01-07T06:28:21;18.40;;;12.93;;
41139;SDS011;26881;48.784;9.192;2024-01-07T06:33:43;19.67;;;14.13;;
41139;SDS011;26881;48.784;9.192;2024-01-07T06:39:05;15.73;;;12.73;;
41139;SDS011;26881;48.784;9.192;2024-01-07T06:44:27;17.67;;;13.33;;
41139;SDS011;26881;48.784;9.192;2024-01-07T06:49:49;18.63;;;13.73;;
41139;SDS011;26881;48.784;9.192;2024-01-07T06:55:11;18.30;;;13.77;;
41139;SDS011;26881;48.784;9.192;2024-01-07T07:00:33;19.03;;;13.73;;
41139;SDS011;26881;48.784;9.192;2024-01-07T07:05:56;18.20;;;11.93;;
41139;SDS011;26881;48.784;9.192;2024-01-07T07:11:18;14.07;;;11.83;;
41139;SDS011;26881;48.784;9.192;2024-01-07T07:16:41;14.93;;;12.23;;
41139;SDS011;26881;48.784;9.192;2024-01-07T07:22:03;13.40;;;11.47;;
41139;SDS011;26881;48.784;9.192;2024-01-07T07:27:26;12.13;;;10.57;;
41139;SDS011;26881;48.784;9.192;2024-01-07T07:32:48;12.17;;;10.07;;
41139;SDS011;26881;48.784;9.192;2024-01-07T07:38:10;13.50;;;9.73;;
41139;SDS011;26881;48.784;9.192;2024-01-07T07:43:32;11.67;;;9.73;;
41139;SDS011;26881;48.784;9.192;2024-01-07T07:48:54;10.43;;;9.13;;
41139;SDS011;26881;48.784;9.192;2024-01-07T07:54:16;10.40;;;8.63;;
41139;SDS011;26881;48.784;9.192;2024-01-07T07:59:38;12.33;;;9.00;;
41139;SDS011;26881;48.784;9.192;2024-01-07T08:05:00;12.53;;;9.27;;
41139;SDS011;26881;48.784;9.192;2024-01-07T08:10:22;10.87;;;8.70;;
41139;SDS011;26881;48.784;9.192;2024-01-07T08:15:44;11.50;;;9.00;;
41139;SDS011;26881;48.784;9.192;2024-01-07T08:21:06;10.37;;;8.33;;
41139;SDS011;26881;48.784;9.192;2024-01-07T08:26:28;11.17;;;8.77;;
41139;SDS011;26881;48.784;9.192;2024-01-07T08:31:50;10.67;;;7.37;;
41139;SDS011;26881;48.784;9.192;2024-01-07T08:37:12;10.37;;;7.83;;
41139;SDS011;26881;48.784;9.192;2024-01-07T08:42:35;9.73;;;7.97;;
41139;SDS011;26881;48.784;9.192;2024-01-07T08:47:57;12.37;;;7.70;;
41139;SDS011;26881;48.784;9.192;2024-01-07T08:53:20;12.17;;;8.50;;
41139;SDS011;26881;48.784;9.192;2024-01-07T08:58:43;10.77;;;7.83;;
41139;SDS011;26881;48.784;9.192;2024-01-07T09:04:05;13.23;;;9.33;;
41139;SDS011;26881;48.784;9.192;2024-01-07T09:09:27;12.10;;;8.33;;
41139;SDS011;26881;48.784;9.192;2024-01-07T09:14:49;10.57;;;7.83;;
41139;SDS011;26881;48.784;9.192;2024-01-07T09:20:12;8.60;;;6.43;;
41139;SDS011;26881;48.784;9.192;2024-01-07T09:25:34;6.80;;;5.37;;
41139;SDS011;26881;48.784;9.192;2024-01-07T09:30:56;6.03;;;5.10;;
41139;SDS011;26881;48.784;9.192;2024-01-07T09:36:18;5.90;;;4.80;;
41139;SDS011;26881;48.784;9.192;2024-01-07T09:41:50;5.90;;;5.00;;
41139;SDS011;26881;48.784;9.192;2024-01-07T09:47:14;7.33;;;5.50;;
41139;SDS011;26881;48.784;9.192;2024-01-07T09:52:37;7.27;;;5.80;;
41139;SDS011;26881;48.784;9.192;2024-01-07T09:58:04;7.40;;;5.17;;
41139;SDS011;26881;48.784;9.192;2024-01-07T10:03:26;6.43;;;5.27;;
41139;SDS011;26881;48.784;9.192;2024-01-07T10:08:48;6.33;;;5.23;;
41139;SDS011;26881;48.784;9.192;2024-01-07T10:14:10;7.60;;;5.80;;
41139;SDS011;26881;48.784;9.192;2024-01-07T10:19:32;7.27;;;6.03;;
41139;SDS011;26881;48.784;9.192;2024-01-07T10:24:57;7.10;;;5.43;;
41139;SDS011;26881;48.784;9.192;2024-01-07T10:30:19;6.63;;;5.53;;
41139;SDS011;26881;48.784;9.192;2024-01-07T10:35:44;6.70;;;5.93;;
41139;SDS011;26881;48.784;9.192;2024-01-07T10:41:22;8.60;;;6.40;;
41139;SDS011;26881;48.784;9.192;2024-01-07T10:46:46;7.87;;;6.40;;
41139;SDS011;26881;48.784;9.192;2024-01-07T10:52:08;7.97;;;6.77;;
41139;SDS011;26881;48.784;9.192;2024-01-07T11:08:54;8.67;;;6.93;;
41139;SDS011;26881;48.784;9.192;2024-01-07T11:20:07;8.10;;;6.53;;
41139;SDS011;26881;48.784;9.192;2024-01-07T11:25:40;8.73;;;7.10;;
41139;SDS011;26881;48.784;9.192;2024-01-07T11:31:02;7.03;;;6.30;;
41139;SDS011;26881;48.784;9.192;2024-01-07T11:36:24;7.93;;;6.40;;
41139;SDS011;26881;48.784;9.192;2024-01-07T11:41:48;6.57;;;5.90;;
41139;SDS011;26881;48.784;9.192;2024-01-07T11:47:11;7.13;;;6.07;;
41139;SDS011;26881;48.784;9.192;2024-01-07T11:52:33;6.23;;;5.47;;
41139;SDS011;26881;48.784;9.192;2024-01-07T11:58:00;7.03;;;6.13;;
41139;SDS011;26881;48.784;9.192;2024-01-07T12:03:24;7.87;;;6.50;;
41139;SDS011;26881;48.784;9.192;2024-01-07T12:08:46;7.97;;;6.93;;
41139;SDS011;26881;48.784;9.192;2024-01-07T12:14:08;8.10;;;7.30;;
41139;SDS011;26881;48.784;9.192;2024-01-07T12:19:31;7.43;;;6.70;;
41139;SDS011;26881;48.784;9.192;2024-01-07T12:24:59;8.10;;;6.83;;
41139;SDS011;26881;48.784;9.192;2024-01-07T12:30:24;9.73;;;7.37;;
41139;SDS011;26881;48.784;9.192;2024-01-07T12:35:47;8.67;;;7.27;;
41139;SDS011;26881;48.784;9.192;2024-01-07T12:41:09;9.87;;;7.53;;
41139;SDS011;26881;48.784;9.192;2024-01-07T12:46:31;8.53;;;7.57;;
41139;SDS011;26881;48.784;9.192;2024-01-07T12:51:53;11.47;;;9.13;;
41139;SDS011;26881;48.784;9.192;2024-01-07T12:57:15;11.10;;;8.80;;
41139;SDS011;26881;48.784;9.192;2024-01-07T13:02:37;10.03;;;8.40;;
41139;SDS011;26881;48.784;9.192;2024-01-07T13:07:59;9.97;;;8.40;;
41139;SDS011;26881;48.784;9.192;2024-01-07T13:13:21;10.77;;;8.67;;
41139;SDS011;26881;48.784;9.192;2024-01-07T13:18:43;10.23;;;8.57;;
41139;SDS011;26881;48.784;9.192;2024-01-07T13:24:05;10.67;;;9.00;;
41139;SDS011;26881;48.784;9.192;2024-01-07T13:29:27;10.37;;;9.00;;
41139;SDS011;26881;48.784;9.192;2024-01-07T13:34:49;11.67;;;9.00;;
41139;SDS011;26881;48.784;9.192;2024-01-07T13:40:11;11.30;;;8.97;;
41139;SDS011;26881;48.784;9.192;2024-01-07T13:45:36;12.20;;;9.70;;
41139;SDS011;26881;48.784;9.192;2024-01-07T13:50:57;13.80;;;9.87;;
41139;SDS011;26881;48.784;9.192;2024-01-07T13:56:19;11.97;;;9.57;;
41139;SDS011;26881;48.784;9.192;2024-01-07T14:01:41;12.87;;;9.57;;
41139;SDS011;26881;48.784;9.192;2024-01-07T14:07:04;12.00;;;10.17;;
41139;SDS011;26881;48.784;9.192;2024-01-07T14:12:26;13.47;;;11.07;;
41139;SDS011;26881;48.784;9.192;2024-01-07T14:17:48;15.07;;;10.70;;
41139;SDS011;26881;48.784;9.192;2024-01-07T14:23:11;23.43;;;11.50;;
41139;SDS011;26881;48.784;9.192;2024-01-07T14:28:33;15.03;;;11.43;;
41139;SDS011;26881;48.784;9.192;2024-01-07T14:33:55;14.83;;;11.03;;
41139;SDS011;26881;48.784;9.192;2024-01-07T14:39:17;15.27;;;12.00;;
41139;SDS011;26881;48.784;9.192;2024-01-07T14:44:40;17.15;;;15.10;;
41139;SDS011;26881;48.784;9.192;2024-01-07T14:50:11;16.23;;;13.85;;
41139;SDS011;26881;48.784;9.192;2024-01-07T14:55:34;15.37;;;12.13;;
41139;SDS011;26881;48.784;9.192;2024-01-07T15:00:56;15.97;;;14.27;;
41139;SDS011;26881;48.784;9.192;2024-01-07T15:06:19;14.77;;;11.43;;
41139;SDS011;26881;48.784;9.192;2024-01-07T15:11:41;16.03;;;11.43;;
41139;SDS011;26881;48.784;9.192;2024-01-07T15:17:05;15.23;;;11.73;;
41139;SDS011;26881;48.784;9.192;2024-01-07T15:22:27;16.50;;;11.63;;
41139;SDS011;26881;48.784;9.192;2024-01-07T15:27:49;18.73;;;13.33;;
41139;SDS011;26881;48.784;9.192;2024-01-07T15:33:11;17.37;;;13.10;;
41139;SDS011;26881;48.784;9.192;2024-01-07T15:38:33;14.87;;;11.63;;
41139;SDS011;26881;48.784;9.192;2024-01-07T15:43:55;18.33;;;13.60;;
41139;SDS011;26881;48.784;9.192;2024-01-07T15:49:17;19.13;;;13.17;;
41139;SDS011;26881;48.784;9.192;2024-01-07T15:54:39;20.27;;;13.13;;
41139;SDS011;26881;48.784;9.192;2024-01-07T16:00:01;18.90;;;13.07;;
41139;SDS011;26881;48.784;9.192;2024-01-07T16:05:24;18.90;;;14.37;;
41139;SDS011;26881;48.784;9.192;2024-01-07T16:10:46;16.47;;;12.60;;
41139;SDS011;26881;48.784;9.192;2024-01-07T16:16:08;17.00;;;12.90;;
41139;SDS011;26881;48.784;9.192;2024-01-07T16:21:30;19.07;;;13.40;;
41139;SDS011;26881;48.784;9.192;2024-01-07T16:26:53;25.27;;;15.43;;
41139;SDS011;26881;48.784;9.192;2024-01-07T16:32:16;19.13;;;13.50;;
41139;SDS011;26881;48.784;9.192;2024-01-07T16:37:37;16.43;;;10.73;;
41139;SDS011;26881;48.784;9.192;2024-01-07T16:42:59;16.97;;;11.30;;
41139;SDS011;26881;48.784;9.192;2024-01-07T16:48:21;17.00;;;10.43;;
41139;SDS011;26881;48.784;9.192;2024-01-07T16:54:03;16.27;;;10.37;;
41139;SDS011;26881;48.784;9.192;2024-01-07T16:59:25;13.63;;;9.73;;
41139;SDS011;26881;48.784;9.192;2024-01-07T17:04:48;17.27;;;9.93;;
41139;SDS011;26881;48.784;9.192;2024-01-07T17:10:09;14.47;;;10.53;;
41139;SDS011;26881;48.784;9.192;2024-01-07T17:15:32;14.30;;;10.50;;
41139;SDS011;26881;48.784;9.192;2024-01-07T17:20:54;16.73;;;11.77;;
41139;SDS011;26881;48.784;9.192;2024-01-07T17:26:20;17.50;;;13.00;;
41139;SDS011;26881;48.784;9.192;2024-01-07T17:31:43;14.93;;;10.40;;
41139;SDS011;26881;48.784;9.192;2024-01-07T17:37:05;13.73;;;9.97;;
41139;SDS011;26881;48.784;9.192;2024-01-07T17:42:26;14.97;;;10.17;;
41139;SDS011;26881;48.784;9.192;2024-01-07T17:47:49;15.43;;;10.23;;
41139;SDS011;26881;48.784;9.192;2024-01-07T17:53:12;15.33;;;10.73;;
41139;SDS011;26881;48.784;9.192;2024-01-07T17:58:34;15.43;;;10.37;;
41139;SDS011;26881;48.784;9.192;2024-01-07T18:03:56;22.23;;;14.80;;
41139;SDS011;26881;48.784;9.192;2024-01-07T18:09:17;18.97;;;10.90;;
41139;SDS011;26881;48.784;9.192;2024-01-07T18:14:39;15.40;;;11.43;;
41139;SDS011;26881;48.784;9.192;2024-01-07T18:20:01;15.93;;;10.97;;
41139;SDS011;26881;48.784;9.192;2024-01-07T18:25:23;13.23;;;8.87;;
41139;SDS011;26881;48.784;9.192;2024-01-07T18:30:45;15.60;;;9.50;;
41139;SDS011;26881;48.784;9.192;2024-01-07T18:36:07;15.17;;;10.20;;
41139;SDS011;26881;48.784;9.192;2024-01-07T18:41:30;12.40;;;8.90;;
41139;SDS011;26881;48.784;9.192;2024-01-07T18:46:52;15.10;;;10.07;;
41139;SDS011;26881;48.784;9.192;2024-01-07T18:52:14;13.07;;;8.73;;
41139;SDS011;26881;48.784;9.192;2024-01-07T18:57:36;13.67;;;8.23;;
41139;SDS011;26881;48.784;9.192;2024-01-07T19:03:00;13.23;;;8.53;;
41139;SDS011;26881;48.784;9.192;2024-01-07T19:08:22;11.60;;;8.63;;
41139;SDS011;26881;48.784;9.192;2024-01-07T19:13:44;12.33;;;9.07;;
41139;SDS011;26881;48.784;9.192;2024-01-07T19:19:06;10.77;;;8.17;;
41139;SDS011;26881;48.784;9.192;2024-01-07T19:24:28;12.17;;;7.70;;
41139;SDS011;26881;48.784;9.192;2024-01-07T19:29:50;14.80;;;10.33;;
41139;SDS011;26881;48.784;9.192;2024-01-07T19:35:12;10.43;;;8.40;;
41139;SDS011;26881;48.784;9.192;2024-01-07T19:40:34;10.73;;;8.40;;
41139;SDS011;26881;48.784;9.192;2024-01-07T19:45:57;9.77;;;7.07;;
41139;SDS011;26881;48.784;9.192;2024-01-07T19:51:22;12.00;;;8.50;;
41139;SDS011;26881;48.784;9.192;2024-01-07T19:56:44;10.90;;;6.87;;
41139;SDS011;26881;48.784;9.192;2024-01-07T20:02:06;11.47;;;7.17;;
41139;SDS011;26881;48.784;9.192;2024-01-07T20:07:28;12.13;;;7.57;;
41139;SDS011;26881;48.784;9.192;2024-01-07T20:12:50;9.60;;;8.03;;
41139;SDS011;26881;48.784;9.192;2024-01-07T20:18:12;10.20;;;7.40;;
41139;SDS011;26881;48.784;9.192;2024-01-07T20:23:34;9.80;;;7.70;;
41139;SDS011;26881;48.784;9.192;2024-01-07T20:28:57;10.97;;;7.17;;
41139;SDS011;26881;48.784;9.192;2024-01-07T20:34:21;10.70;;;7.53;;
41139;SDS011;26881;48.784;9.192;2024-01-07T20:39:44;9.77;;;7.57;;
41139;SDS011;26881;48.784;9.192;2024-01-07T20:45:06;9.70;;;7.77;;
41139;SDS011;26881;48.784;9.192;2024-01-07T20:50:28;9.43;;;7.67;;
41139;SDS011;26881;48.784;9.192;2024-01-07T20:55:50;9.17;;;7.60;;
41139;SDS011;26881;48.784;9.192;2024-01-07T21:01:15;9.57;;;8.03;;
41139;SDS011;26881;48.784;9.192;2024-01-07T21:06:37;8.13;;;6.87;;
41139;SDS011;26881;48.784;9.192;2024-01-07T21:12:00;9.43;;;6.97;;
41139;SDS011;26881;48.784;9.192;2024-01-07T21:17:22;9.50;;;7.57;;
41139;SDS011;26881;48.784;9.192;2024-01-07T21:22:44;9.83;;;7.97;;
41139;SDS011;26881;48.784;9.192;2024-01-07T21:28:06;7.57;;;6.77;;
41139;SDS011;26881;48.784;9.192;2024-01-07T21:33:29;8.70;;;7.80;;
41139;SDS011;26881;48.784;9.192;2024-01-07T21:38:51;9.60;;;7.23;;
41139;SDS011;26881;48.784;9.192;2024-01-07T21:44:14;8.43;;;6.70;;
41139;SDS011;26881;48.784;9.192;2024-01-07T21:49:36;11.83;;;7.90;;
41139;SDS011;26881;48.784;9.192;2024-01-07T21:54:58;8.70;;;7.30;;
41139;SDS011;26881;48.784;9.192;2024-01-07T22:00:20;7.83;;;6.80;;
41139;SDS011;26881;48.784;9.192;2024-01-07T22:05:42;9.20;;;7.27;;
41139;SDS011;26881;48.784;9.192;2024-01-07T22:11:04;8.63;;;7.00;;
41139;SDS011;26881;48.784;9.192;2024-01-07T22:16:33;8.50;;;7.30;;
41139;SDS011;26881;48.784;9.192;2024-01-07T22:21:55;12.23;;;7.13;;
41139;SDS011;26881;48.784;9.192;2024-01-07T22:27:17;8.00;;;7.17;;
41139;SDS011;26881;48.784;9.192;2024-01-07T22:32:39;9.00;;;7.43;;
41139;SDS011;26881;48.784;9.192;2024-01-07T22:38:01;9.33;;;7.13;;
41139;SDS011;26881;48.784;9.192;2024-01-07T22:43:23;9.03;;;7.67;;
41139;SDS011;26881;48.784;9.192;2024-01-07T22:48:45;9.03;;;7.47;;
41139;SDS011;26881;48.784;9.192;2024-01-07T22:54:07;7.63;;;6.83;;
41139;SDS011;26881;48.784;9.192;2024-01-07T22:59:29;7.60;;;6.80;;
41139;SDS011;26881;48.784;9.192;2024-01-07T23:04:51;7.30;;;6.10;;
41139;SDS011;26881;48.784;9.192;2024-01-07T23:10:13;8.77;;;6.10;;
41139;SDS011;26881;48.784;9.192;2024-01-07T23:15:38;7.43;;;6.50;;
41139;SDS011;26881;48.784;9.192;2024-01-07T23:21:00;9.37;;;5.83;;
41139;SDS011;26881;48.784;9.192;2024-01-07T23:26:22;6.70;;;5.77;;
41139;SDS011;26881;48.784;9.192;2024-01-07T23:31:44;8.13;;;5.30;;
41139;SDS011;26881;48.784;9.192;2024-01-07T23:37:08;4.23;;;3.80;;
41139;SDS011;26881;48.784;9.192;2024-01-07T23:42:30;3.20;;;2.90;;
41139;SDS011;26881;48.784;9.192;2024-01-07T23:47:51;4.47;;;3.23;;
41139;SDS011;26881;48.784;9.192;2024-01-07T23:53:13;3.63;;;3.23;;
41139;SDS011;26881;48.784;9.192;2024-01-07T23:58:35;4.33;;;3.27;;
